Time;durP1;ratioP1;P1;durP2;ratioP2;P2;SDS_P1;SDS_P2;PMS_P1;PMS_P2;Temp;Humidity;BMP_temperature;BMP_pressure;BME280_temperature;BME280_humidity;BME280_pressure;Samples;Min_cycle;Max_cycle;Signal;HPM_P1;HPM_P2
2021/08/28 00:01:52;;;;;;;;;2.00;2.00;;;;;16.98;62.21;101874.50;5035477;28;45462;-75
2021/08/28 00:04:18;;;;;;;;;1.75;1.75;;;;;16.99;62.77;101878.88;5036222;28;45358;-75
2021/08/28 00:06:43;;;;;;;;;3.00;2.25;;;;;16.92;62.90;101865.06;5035203;28;58355;-75
2021/08/28 00:09:08;;;;;;;;;5.25;1.50;;;;;16.93;62.63;101872.09;5035473;28;45371;-75
2021/08/28 00:11:34;;;;;;;;;3.25;3.25;;;;;16.92;62.99;101878.34;5036208;28;45349;-76
2021/08/28 00:13:59;;;;;;;;;2.00;2.00;;;;;16.62;63.67;101830.28;5035825;28;45494;-76
2021/08/28 00:16:24;;;;;;;;;3.50;2.00;;;;;16.86;63.83;101882.19;5035501;28;47034;-76
2021/08/28 00:18:50;;;;;;;;;3.75;1.00;;;;;16.85;63.93;101874.28;5036107;28;45493;-75
2021/08/28 00:21:15;;;;;;;;;3.50;1.00;;;;;16.81;63.26;101864.72;5035621;28;45508;-76
2021/08/28 00:23:40;;;;;;;;;1.50;1.00;;;;;16.77;64.04;101869.38;5039622;28;45420;-77
2021/08/28 00:26:06;;;;;;;;;3.50;2.00;;;;;16.78;64.60;101875.53;5035532;28;53472;-75
2021/08/28 00:28:31;;;;;;;;;0.00;0.00;;;;;16.79;64.07;101871.94;5036961;28;45843;-75
2021/08/28 00:30:56;;;;;;;;;4.50;2.00;;;;;16.76;64.12;101869.41;5040440;28;45463;-75
2021/08/28 00:33:22;;;;;;;;;2.00;2.00;;;;;16.68;63.92;101868.00;5042482;28;45586;-76
2021/08/28 00:35:47;;;;;;;;;3.25;1.75;;;;;16.72;64.60;101875.84;5041567;28;46244;-75
2021/08/28 00:38:13;;;;;;;;;4.00;2.00;;;;;16.66;64.95;101876.97;5041751;28;45334;-75
2021/08/28 00:40:39;;;;;;;;;3.00;3.00;;;;;16.61;65.32;101877.22;5041132;28;45478;-74
2021/08/28 00:43:04;;;;;;;;;4.25;2.00;;;;;16.63;65.10;101872.69;5035753;28;45313;-76
2021/08/28 00:45:35;;;;;;;;;5.50;3.00;;;;;16.62;65.45;101876.28;5039677;28;45592;-75
2021/08/28 00:48:05;;;;;;;;;3.50;1.75;;;;;16.60;65.18;101871.97;5034556;28;45672;-75
2021/08/28 00:50:33;;;;;;;;;2.75;1.75;;;;;16.50;65.72;101868.06;5035208;28;45655;-76
2021/08/28 00:53:01;;;;;;;;;3.25;2.75;;;;;16.55;65.34;101874.88;5019566;28;45399;-75
2021/08/28 00:55:32;;;;;;;;;4.50;2.50;;;;;16.51;65.56;101872.44;5015362;28;47540;-75
2021/08/28 00:58:01;;;;;;;;;2.75;2.75;;;;;16.51;65.64;101875.94;5014923;28;45693;-75
2021/08/28 01:00:27;;;;;;;;;3.00;2.00;;;;;16.48;65.52;101880.53;5013460;28;45397;-75
2021/08/28 01:02:54;;;;;;;;;3.00;3.00;;;;;16.44;65.51;101866.56;5014863;28;45660;-75
2021/08/28 01:05:19;;;;;;;;;4.00;3.00;;;;;16.42;66.50;101871.94;5014784;28;46923;-74
2021/08/28 01:08:08;;;;;;;;;4.00;3.00;;;;;16.40;66.38;101879.13;5014413;28;45517;-75
2021/08/28 01:10:37;;;;;;;;;2.75;2.75;;;;;16.39;66.81;101873.88;5014317;28;45517;-75
2021/08/28 01:13:08;;;;;;;;;2.25;2.00;;;;;16.37;66.90;101873.97;5011842;28;45394;-75
2021/08/28 01:15:37;;;;;;;;;3.25;1.00;;;;;16.37;66.69;101870.47;5014492;28;46247;-75
2021/08/28 01:18:04;;;;;;;;;2.75;2.50;;;;;16.35;66.95;101869.69;5013729;28;45342;-75
2021/08/28 01:20:40;;;;;;;;;3.75;3.00;;;;;16.33;67.12;101863.56;5014536;28;45465;-75
2021/08/28 01:23:07;;;;;;;;;3.25;3.00;;;;;16.26;67.55;101856.88;5014844;28;45358;-75
2021/08/28 01:25:33;;;;;;;;;5.75;3.00;;;;;16.31;67.49;101865.47;5014459;28;45514;-75
2021/08/28 01:28:09;;;;;;;;;3.00;3.00;;;;;16.28;67.20;101863.78;5015303;28;45862;-75
2021/08/28 01:30:38;;;;;;;;;4.75;2.25;;;;;16.27;67.59;101866.53;5014184;28;45608;-75
2021/08/28 01:33:04;;;;;;;;;5.00;3.00;;;;;16.26;67.68;101870.13;5014020;28;45498;-75
2021/08/28 01:35:31;;;;;;;;;2.75;2.00;;;;;16.23;67.40;101872.91;5014565;28;46167;-74
2021/08/28 01:37:58;;;;;;;;;2.75;1.50;;;;;16.20;68.12;101860.69;5014649;28;46184;-75
2021/08/28 01:40:25;;;;;;;;;3.50;2.25;;;;;16.11;68.05;101854.00;5014471;28;45418;-75
2021/08/28 01:42:52;;;;;;;;;4.00;2.00;;;;;16.06;68.08;101848.06;5015213;28;45454;-75
2021/08/28 01:45:22;;;;;;;;;6.50;2.50;;;;;16.14;68.56;101858.31;5012680;28;47727;-76
2021/08/28 01:47:48;;;;;;;;;3.50;2.00;;;;;16.12;68.48;101853.06;5013267;28;45690;-75
2021/08/28 01:50:18;;;;;;;;;3.00;1.50;;;;;16.12;68.59;101858.38;5014213;28;45454;-75
2021/08/28 01:52:43;;;;;;;;;5.00;2.00;;;;;16.12;68.96;101853.06;5031767;28;45436;-75
2021/08/28 01:55:09;;;;;;;;;5.50;3.25;;;;;16.04;68.66;101846.44;5034337;28;45531;-76
2021/08/28 01:57:35;;;;;;;;;5.75;3.75;;;;;16.07;68.83;101854.22;5033508;28;45486;-76
2021/08/28 02:00:01;;;;;;;;;4.25;2.00;;;;;16.05;68.85;101858.75;5034297;28;45603;-76
2021/08/28 02:02:26;;;;;;;;;3.25;3.25;;;;;16.04;68.99;101854.41;5034021;28;45349;-76
2021/08/28 02:04:52;;;;;;;;;4.75;2.75;;;;;16.04;68.89;101863.22;5034064;28;46125;-76
2021/08/28 02:07:30;;;;;;;;;5.25;4.25;;;;;16.02;69.09;101865.06;5033832;28;45324;-74
2021/08/28 02:10:13;;;;;;;;;3.00;2.00;;;;;15.96;69.56;101857.41;5033896;28;45400;-75
2021/08/28 02:12:47;;;;;;;;;3.00;3.00;;;;;15.97;69.54;101868.84;5034533;28;45384;-75
2021/08/28 02:15:17;;;;;;;;;3.50;2.25;;;;;15.95;69.57;101860.13;5032696;28;45635;-75
2021/08/28 02:17:56;;;;;;;;;3.00;3.00;;;;;15.92;69.68;101863.78;5027085;28;45383;-74
2021/08/28 02:20:26;;;;;;;;;4.00;3.50;;;;;15.72;69.58;101832.06;5033801;28;45535;-74
2021/08/28 02:22:56;;;;;;;;;2.00;2.00;;;;;15.91;69.54;101878.81;5034097;28;45490;-75
2021/08/28 02:25:31;;;;;;;;;4.00;2.50;;;;;15.88;69.94;101868.38;5033535;28;46225;-75
2021/08/28 02:28:04;;;;;;;;;2.00;1.75;;;;;15.88;69.77;101875.47;5034268;28;45474;-75
2021/08/28 02:30:32;;;;;;;;;5.00;2.00;;;;;15.87;70.09;101876.41;5033112;28;45504;-75
2021/08/28 02:33:02;;;;;;;;;4.50;3.00;;;;;15.83;70.32;101859.78;5033896;28;45375;-75
2021/08/28 02:35:29;;;;;;;;;3.00;3.00;;;;;15.77;70.33;101873.31;5033388;28;45645;-75
2021/08/28 02:37:56;;;;;;;;;4.00;3.00;;;;;15.79;70.44;101874.09;5033381;28;45455;-75
2021/08/28 02:40:23;;;;;;;;;4.00;1.75;;;;;15.74;70.03;101867.31;5033793;28;45402;-76
2021/08/28 02:42:50;;;;;;;;;4.00;3.00;;;;;15.75;70.43;101875.16;5034148;28;45634;-75
2021/08/28 02:45:19;;;;;;;;;3.75;3.00;;;;;15.75;70.45;101875.16;5032599;28;46243;-75
2021/08/28 02:47:46;;;;;;;;;7.00;3.50;;;;;15.72;70.50;101877.97;5033282;28;45466;-75
2021/08/28 02:50:14;;;;;;;;;4.50;2.00;;;;;15.71;70.66;101873.59;5033595;28;45512;-76
2021/08/28 02:52:41;;;;;;;;;3.25;3.00;;;;;15.68;70.60;101879.03;5032419;28;45561;-75
2021/08/28 02:55:09;;;;;;;;;4.75;3.25;;;;;15.66;70.83;101875.63;5033212;28;46255;-75
2021/08/28 02:57:37;;;;;;;;;4.00;2.00;;;;;15.65;70.90;101865.94;5032962;28;45303;-75
2021/08/28 03:00:03;;;;;;;;;5.00;5.00;;;;;15.43;71.28;101828.06;5031968;28;45555;-75
2021/08/28 03:02:29;;;;;;;;;4.75;3.00;;;;;15.62;71.44;101860.75;5032426;28;45795;-75
2021/08/28 03:04:54;;;;;;;;;4.25;1.25;;;;;15.60;71.56;101857.28;5033509;28;45438;-75
2021/08/28 03:07:20;;;;;;;;;3.00;2.50;;;;;15.60;70.91;101852.84;5033095;28;45431;-75
2021/08/28 03:09:46;;;;;;;;;6.00;2.25;;;;;15.58;71.61;101854.72;5034507;28;45321;-75
2021/08/28 03:12:12;;;;;;;;;5.75;3.50;;;;;15.55;71.66;101848.69;5036932;28;45495;-75
2021/08/28 03:14:37;;;;;;;;;4.75;2.00;;;;;15.57;71.54;101868.06;5035531;28;45322;-75
2021/08/28 03:17:05;;;;;;;;;5.00;2.00;;;;;15.53;71.30;101859.38;5036662;28;45418;-75
2021/08/28 03:19:31;;;;;;;;;3.50;1.75;;;;;15.51;71.62;101852.44;5036608;28;45328;-75
2021/08/28 03:21:57;;;;;;;;;3.00;1.00;;;;;15.48;71.76;101856.06;5037618;28;45335;-74
2021/08/28 03:24:27;;;;;;;;;3.25;3.25;;;;;15.50;71.36;101862.16;5036040;28;45592;-74
2021/08/28 03:26:55;;;;;;;;;4.00;2.75;;;;;15.48;71.76;101868.47;5036251;28;45453;-76
2021/08/28 03:29:21;;;;;;;;;3.75;3.00;;;;;15.44;71.45;101858.94;5035875;28;45592;-76
2021/08/28 03:31:49;;;;;;;;;5.00;3.00;;;;;15.39;71.74;101865.28;5036362;28;45610;-76
2021/08/28 03:34:16;;;;;;;;;3.25;2.25;;;;;15.38;70.74;101863.56;5036526;28;46234;-75
2021/08/28 03:36:42;;;;;;;;;3.25;3.00;;;;;15.36;71.79;101864.59;5036180;28;45521;-76
2021/08/28 03:39:08;;;;;;;;;6.00;2.75;;;;;15.35;71.98;101866.38;5036337;28;45501;-76
2021/08/28 03:41:33;;;;;;;;;4.50;1.50;;;;;15.34;72.16;101867.28;5036436;28;45435;-76
2021/08/28 03:43:59;;;;;;;;;2.00;2.00;;;;;15.32;72.40;101863.00;5035661;28;45337;-76
2021/08/28 03:46:24;;;;;;;;;4.00;2.00;;;;;15.33;72.40;101870.00;5035968;28;45234;-76
2021/08/28 03:48:50;;;;;;;;;4.00;2.50;;;;;15.29;72.08;101863.97;5035968;28;45190;-76
2021/08/28 03:51:15;;;;;;;;;3.00;2.25;;;;;15.25;72.47;101862.41;5035849;28;45453;-78
2021/08/28 03:53:40;;;;;;;;;5.00;2.50;;;;;15.23;72.67;101858.97;5017669;28;46154;-76
2021/08/28 03:56:06;;;;;;;;;4.00;2.75;;;;;15.21;72.66;101852.03;5035431;28;45926;-76
2021/08/28 03:58:33;;;;;;;;;2.75;2.00;;;;;15.23;73.15;101863.41;5035077;28;46632;-76
2021/08/28 04:00:58;;;;;;;;;2.25;2.25;;;;;15.13;72.70;101841.75;5036313;28;45462;-76
2021/08/28 04:03:23;;;;;;;;;4.50;4.00;;;;;15.23;72.64;101855.47;5035889;28;55482;-76
2021/08/28 04:05:49;;;;;;;;;3.00;2.00;;;;;15.21;72.82;101852.88;5035502;28;45484;-76
2021/08/28 04:08:14;;;;;;;;;5.00;3.50;;;;;15.21;72.95;101859.97;5035621;28;45470;-76
2021/08/28 04:10:39;;;;;;;;;4.50;3.00;;;;;15.19;72.85;101851.22;5036129;28;45316;-76
2021/08/28 04:13:05;;;;;;;;;6.75;3.75;;;;;15.12;73.24;101845.34;5035484;28;59948;-77
2021/08/28 04:15:30;;;;;;;;;5.50;4.00;;;;;15.16;73.67;101857.53;5035150;28;45479;-76
2021/08/28 04:17:56;;;;;;;;;5.50;3.25;;;;;15.14;73.49;101854.09;5035258;28;45499;-76
2021/08/28 04:20:22;;;;;;;;;6.00;3.25;;;;;15.17;73.31;101848.66;5034952;28;45423;-76
2021/08/28 04:22:47;;;;;;;;;3.00;2.00;;;;;15.17;73.54;101858.38;5035700;28;45436;-76
2021/08/28 04:25:13;;;;;;;;;3.00;3.00;;;;;15.16;73.66;101859.31;5035354;28;45470;-76
2021/08/28 04:27:38;;;;;;;;;2.75;2.00;;;;;15.09;73.64;101840.19;5036097;28;45601;-76
2021/08/28 04:30:05;;;;;;;;;3.75;2.75;;;;;15.16;74.17;101856.66;5035432;28;45575;-76
2021/08/28 04:32:30;;;;;;;;;4.00;3.00;;;;;15.17;73.82;101863.69;5043462;28;45665;-76
2021/08/28 04:34:56;;;;;;;;;4.50;3.50;;;;;15.08;73.86;101849.91;5035349;28;45491;-76
2021/08/28 04:37:21;;;;;;;;;4.00;2.75;;;;;15.17;74.25;101867.19;5035964;28;45514;-76
2021/08/28 04:39:46;;;;;;;;;4.25;3.50;;;;;15.16;73.68;101862.81;5035667;28;51110;-76
2021/08/28 04:42:12;;;;;;;;;5.50;4.25;;;;;15.16;73.93;101868.13;5034336;28;46992;-76
2021/08/28 04:44:37;;;;;;;;;4.00;4.00;;;;;15.21;74.03;101867.91;5035154;28;45578;-76
2021/08/28 04:47:03;;;;;;;;;3.00;3.00;;;;;15.25;74.07;101866.84;5034828;28;45423;-76
2021/08/28 04:49:28;;;;;;;;;4.75;2.75;;;;;15.30;74.13;101868.38;5035423;28;45550;-76
2021/08/28 04:51:53;;;;;;;;;8.00;4.00;;;;;15.33;74.16;101865.56;5035683;28;46125;-76
2021/08/28 04:54:19;;;;;;;;;3.00;2.75;;;;;15.34;74.20;101858.47;5034385;28;52092;-76
2021/08/28 04:56:44;;;;;;;;;5.25;3.50;;;;;15.34;74.25;101863.78;5034293;28;45581;-77
2021/08/28 04:59:09;;;;;;;;;3.00;2.25;;;;;15.34;74.15;101859.34;5034688;28;45419;-76
2021/08/28 05:01:35;;;;;;;;;4.25;3.00;;;;;15.38;74.24;101871.53;5036053;28;46644;-76
2021/08/28 05:04:00;;;;;;;;;2.75;2.50;;;;;15.42;73.88;101869.59;5035841;28;45454;-77
2021/08/28 05:06:25;;;;;;;;;4.50;4.00;;;;;15.45;74.53;101871.25;5035034;28;45956;-76
2021/08/28 05:08:51;;;;;;;;;5.50;2.00;;;;;15.54;74.16;101876.97;5034125;28;48290;-76
2021/08/28 05:11:16;;;;;;;;;7.75;3.00;;;;;15.53;73.99;101861.16;5033942;28;61518;-76
2021/08/28 05:13:41;;;;;;;;;2.50;2.50;;;;;15.69;73.85;101875.47;5035114;28;45404;-75
2021/08/28 05:16:07;;;;;;;;;3.25;3.00;;;;;15.73;74.09;101873.53;5034863;28;45385;-75
2021/08/28 05:18:32;;;;;;;;;5.00;2.75;;;;;15.73;73.65;101861.16;5034633;28;45238;-75
2021/08/28 05:20:57;;;;;;;;;6.25;4.25;;;;;15.82;73.68;101868.69;5033884;28;57599;-75
2021/08/28 05:23:23;;;;;;;;;4.00;3.50;;;;;15.86;73.84;101874.66;5034214;28;45909;-75
2021/08/28 05:25:48;;;;;;;;;10.25;4.25;;;;;15.88;73.49;101870.19;5034271;28;45445;-75
2021/08/28 05:28:13;;;;;;;;;4.50;3.75;;;;;15.93;73.73;101873.47;5037045;28;45531;-75
2021/08/28 05:30:39;;;;;;;;;3.75;3.00;;;;;15.98;73.53;101874.13;5033965;28;51100;-76
2021/08/28 05:33:04;;;;;;;;;4.75;4.75;;;;;15.98;73.65;101857.34;5033745;28;45323;-76
2021/08/28 05:35:30;;;;;;;;;4.25;3.50;;;;;16.10;73.73;101867.34;5034269;28;45450;-75
2021/08/28 05:37:55;;;;;;;;;9.25;5.00;;;;;16.14;73.52;101864.47;5033846;28;45454;-76
2021/08/28 05:40:20;;;;;;;;;6.25;4.00;;;;;16.19;73.47;101864.28;5033731;28;45421;-76
2021/08/28 05:42:46;;;;;;;;;4.25;3.50;;;;;16.28;73.51;101862.94;5034916;28;45298;-75
2021/08/28 05:45:11;;;;;;;;;9.00;6.50;;;;;16.32;72.80;101883.94;5034194;28;45455;-75
2021/08/28 05:47:37;;;;;;;;;6.75;5.00;;;;;16.33;73.19;101874.19;5033901;28;45469;-76
2021/08/28 05:50:04;;;;;;;;;12.50;6.00;;;;;16.38;73.09;101872.16;5034111;28;46039;-76
2021/08/28 05:52:29;;;;;;;;;7.00;5.00;;;;;16.41;73.50;101867.59;5033602;28;45439;-76
2021/08/28 05:54:54;;;;;;;;;8.50;5.00;;;;;16.50;73.04;101871.59;5034431;28;45507;-75
2021/08/28 05:57:20;;;;;;;;;4.75;4.75;;;;;16.56;72.71;101878.38;5033782;28;45497;-77
2021/08/28 05:59:45;;;;;;;;;5.75;3.25;;;;;16.60;72.54;101874.59;5033080;28;47790;-75
2021/08/28 06:02:11;;;;;;;;;5.75;5.50;;;;;16.63;72.38;101874.47;5042151;28;51941;-76
2021/08/28 06:04:37;;;;;;;;;7.25;4.50;;;;;16.64;72.66;101881.50;5016244;28;45479;-75
2021/08/28 06:07:02;;;;;;;;;6.25;5.50;;;;;16.68;72.29;101881.25;5034733;28;45351;-76
2021/08/28 06:09:28;;;;;;;;;7.00;4.00;;;;;16.67;72.71;101868.06;5033722;28;46123;-75
2021/08/28 06:11:53;;;;;;;;;5.50;4.75;;;;;16.76;72.04;101877.38;5033894;28;45445;-75
2021/08/28 06:14:18;;;;;;;;;8.25;4.00;;;;;16.79;72.46;101879.91;5033350;28;45359;-75
2021/08/28 06:16:44;;;;;;;;;3.25;3.25;;;;;16.81;71.95;101878.00;5032793;28;46628;-75
2021/08/28 06:19:09;;;;;;;;;3.50;3.50;;;;;16.87;71.80;101875.94;5033292;28;53697;-76
2021/08/28 06:21:34;;;;;;;;;6.50;4.00;;;;;16.95;71.72;101883.47;5033553;28;45414;-75
2021/08/28 06:24:01;;;;;;;;;6.50;4.50;;;;;16.97;72.14;101881.63;5033145;28;54222;-75
2021/08/28 06:26:27;;;;;;;;;3.00;2.00;;;;;17.07;71.70;101893.50;5033664;28;45384;-76
2021/08/28 06:28:52;;;;;;;;;5.00;4.00;;;;;17.12;71.60;101887.91;5033237;28;45403;-75
2021/08/28 06:31:17;;;;;;;;;4.75;4.00;;;;;17.16;71.71;101893.00;5033919;28;45688;-76
2021/08/28 06:33:43;;;;;;;;;5.50;3.75;;;;;17.08;71.19;101868.66;5034116;28;45369;-75
2021/08/28 06:36:08;;;;;;;;;5.25;4.25;;;;;17.28;71.16;101895.94;5015015;28;46687;-75
2021/08/28 06:38:33;;;;;;;;;5.00;4.50;;;;;17.29;71.09;101895.03;5033294;28;50179;-76
2021/08/28 06:41:02;;;;;;;;;5.00;4.00;;;;;17.33;71.18;101897.44;5033339;28;45625;-76
2021/08/28 06:43:28;;;;;;;;;7.00;4.25;;;;;17.38;71.53;101892.75;5036191;28;45342;-75
2021/08/28 06:45:53;;;;;;;;;5.50;3.00;;;;;17.55;71.13;101894.50;5037768;28;45440;-75
2021/08/28 06:48:19;;;;;;;;;5.50;3.00;;;;;17.49;70.65;101873.56;5036085;28;52517;-76
2021/08/28 06:50:44;;;;;;;;;7.75;4.00;;;;;17.62;70.78;101897.69;5036295;28;45320;-75
2021/08/28 06:53:10;;;;;;;;;4.25;4.25;;;;;17.58;70.98;101893.47;5036661;28;47799;-76
2021/08/28 06:55:35;;;;;;;;;5.75;4.75;;;;;17.62;70.90;101909.16;5037371;28;45381;-76
2021/08/28 06:58:00;;;;;;;;;5.25;4.00;;;;;17.75;70.60;101898.78;5037119;28;45379;-76
2021/08/28 07:00:26;;;;;;;;;8.25;6.00;;;;;17.98;70.59;101905.47;5036925;28;45411;-75
2021/08/28 07:02:51;;;;;;;;;7.00;5.50;;;;;18.19;70.28;101900.75;5036859;28;45535;-76
2021/08/28 07:05:17;;;;;;;;;9.75;5.75;;;;;18.29;68.89;101893.13;5036786;28;45740;-75
2021/08/28 07:07:42;;;;;;;;;4.75;4.00;;;;;18.36;69.52;101908.63;5036352;28;45364;-75
2021/08/28 07:10:08;;;;;;;;;4.00;4.00;;;;;18.31;69.10;101892.06;5035853;28;56648;-76
2021/08/28 07:12:34;;;;;;;;;4.75;3.75;;;;;18.34;69.07;101910.53;5036496;28;45461;-75
2021/08/28 07:14:59;;;;;;;;;6.00;6.00;;;;;18.35;69.38;101904.25;5036890;28;45554;-76
2021/08/28 07:17:25;;;;;;;;;6.25;5.00;;;;;18.57;69.53;101900.38;5036262;28;45403;-76
2021/08/28 07:19:50;;;;;;;;;6.25;5.00;;;;;18.90;68.74;101892.25;5035465;28;45555;-75
2021/08/28 07:22:15;;;;;;;;;10.25;6.75;;;;;19.42;67.71;101897.94;5037372;28;45435;-77
2021/08/28 07:24:41;;;;;;;;;9.75;6.75;;;;;19.85;67.27;101891.75;5036204;28;55924;-75
2021/08/28 07:27:06;;;;;;;;;8.75;6.00;;;;;20.04;66.56;101879.78;5035721;28;55854;-76
2021/08/28 07:29:32;;;;;;;;;8.50;7.00;;;;;20.41;65.85;101896.09;5036781;28;45403;-76
2021/08/28 07:31:57;;;;;;;;;7.00;6.00;;;;;20.65;65.27;101895.44;5036451;28;45465;-76
2021/08/28 07:34:23;;;;;;;;;6.25;5.50;;;;;20.77;64.83;101891.94;5035661;28;45561;-76
2021/08/28 07:36:48;;;;;;;;;12.00;5.25;;;;;20.83;64.44;101903.09;5036656;28;45604;-76
2021/08/28 07:39:13;;;;;;;;;6.75;5.00;;;;;20.97;64.16;101898.63;5035820;28;45506;-76
2021/08/28 07:41:39;;;;;;;;;11.50;8.50;;;;;21.10;64.37;101905.69;5035577;28;45865;-75
2021/08/28 07:44:04;;;;;;;;;10.25;7.25;;;;;21.09;63.42;101909.34;5036080;28;45572;-77
2021/08/28 07:46:30;;;;;;;;;9.75;7.00;;;;;21.06;63.45;101904.19;5036338;28;45611;-76
2021/08/28 07:48:55;;;;;;;;;7.75;5.50;;;;;21.33;63.32;101904.13;5035788;28;45436;-76
2021/08/28 07:51:20;;;;;;;;;4.75;4.75;;;;;21.56;62.90;101905.19;5035610;28;52101;-76
2021/08/28 07:53:46;;;;;;;;;8.75;7.00;;;;;21.68;62.09;101894.59;5035211;28;45257;-76
2021/08/28 07:56:11;;;;;;;;;9.75;5.50;;;;;21.87;61.61;101906.53;5035201;28;52129;-76
2021/08/28 07:58:37;;;;;;;;;8.25;6.50;;;;;21.96;61.86;101898.81;5017977;28;45508;-76
2021/08/28 08:01:02;;;;;;;;;9.00;6.00;;;;;21.97;61.22;101901.34;5032624;28;45371;-76
2021/08/28 08:03:27;;;;;;;;;9.00;5.75;;;;;22.10;60.60;101898.66;5034601;28;49200;-76
2021/08/28 08:05:53;;;;;;;;;7.00;5.25;;;;;22.46;60.89;101892.44;5035981;28;45366;-76
2021/08/28 08:08:18;;;;;;;;;8.00;4.25;;;;;22.70;60.03;101881.69;5034906;28;52893;-77
2021/08/28 08:10:43;;;;;;;;;8.50;5.75;;;;;23.03;59.73;101891.69;5035814;28;45526;-76
2021/08/28 08:13:09;;;;;;;;;6.25;5.00;;;;;23.34;59.26;101892.84;5036135;28;45398;-77
2021/08/28 08:15:34;;;;;;;;;4.75;4.75;;;;;23.71;58.18;101889.94;5035709;28;46245;-76
2021/08/28 08:17:59;;;;;;;;;5.00;5.00;;;;;23.93;58.19;101903.34;5034668;28;45468;-76
2021/08/28 08:20:25;;;;;;;;;5.75;5.25;;;;;23.79;57.10;101897.38;5035425;28;45658;-77
2021/08/28 08:22:51;;;;;;;;;5.75;4.00;;;;;23.75;56.83;101901.28;5035625;28;45451;-76
2021/08/28 08:25:16;;;;;;;;;7.50;4.75;;;;;23.45;56.77;101886.63;5035843;28;46213;-76
2021/08/28 08:27:42;;;;;;;;;8.00;4.00;;;;;23.10;57.28;101897.44;5035512;28;45563;-76
2021/08/28 08:30:07;;;;;;;;;3.75;3.75;;;;;23.04;57.46;101896.09;5033822;28;53650;-75
2021/08/28 08:32:33;;;;;;;;;5.50;4.50;;;;;23.27;57.05;101888.06;5034674;28;45537;-77
2021/08/28 08:34:58;;;;;;;;;6.00;3.75;;;;;23.43;57.39;101877.84;5018548;28;48347;-76
2021/08/28 08:37:23;;;;;;;;;4.50;4.50;;;;;23.66;57.18;101886.78;5035312;28;45592;-77
2021/08/28 08:39:49;;;;;;;;;7.00;5.00;;;;;23.77;56.55;101886.78;5035258;28;47975;-76
2021/08/28 08:42:17;;;;;;;;;5.50;3.75;;;;;24.12;56.52;101897.34;5035325;28;45498;-77
2021/08/28 08:44:45;;;;;;;;;5.00;5.00;;;;;24.80;56.11;101903.34;5035073;28;46093;-76
2021/08/28 08:47:10;;;;;;;;;7.00;4.50;;;;;25.55;54.38;101904.09;5034772;28;45473;-76
2021/08/28 08:49:37;;;;;;;;;4.25;4.25;;;;;26.46;54.02;101895.03;5034837;28;45876;-76
2021/08/28 08:52:03;;;;;;;;;5.00;4.25;;;;;27.73;52.41;101907.31;5032483;28;45594;-77
2021/08/28 08:54:28;;;;;;;;;6.25;4.00;;;;;28.53;50.54;101901.13;5040094;28;45910;-76
2021/08/28 08:56:54;;;;;;;;;5.00;4.25;;;;;28.30;49.45;101906.13;5040545;28;45365;-76
2021/08/28 08:59:19;;;;;;;;;3.00;3.00;;;;;27.75;49.40;101899.91;5037037;28;45352;-77
2021/08/28 09:01:44;;;;;;;;;6.50;3.50;;;;;26.90;50.29;101919.72;5034757;28;45459;-76
2021/08/28 09:04:11;;;;;;;;;5.00;3.50;;;;;25.87;50.51;101917.44;5035596;28;46022;-76
2021/08/28 09:06:38;;;;;;;;;4.00;4.00;;;;;25.07;51.81;101916.31;5035427;28;45385;-76
2021/08/28 09:09:03;;;;;;;;;3.00;3.00;;;;;24.57;52.89;101923.22;5034729;28;45690;-76
2021/08/28 09:11:33;;;;;;;;;6.50;5.00;;;;;24.30;53.38;101915.59;5034626;28;45373;-77
2021/08/28 09:14:16;;;;;;;;;2.50;2.50;;;;;24.05;53.66;101919.44;5039171;28;47223;-77
2021/08/28 09:16:41;;;;;;;;;4.00;4.00;;;;;23.70;53.92;101912.41;5020760;28;45519;-77
2021/08/28 09:19:07;;;;;;;;;6.75;4.75;;;;;23.58;54.71;101919.53;5035173;28;45481;-77
2021/08/28 09:21:34;;;;;;;;;6.75;2.00;;;;;23.49;55.05;101922.97;5034920;28;45419;-77
2021/08/28 09:24:08;;;;;;;;;4.00;4.00;;;;;23.33;55.03;101915.25;5034313;28;47098;-76
2021/08/28 09:26:39;;;;;;;;;6.25;5.50;;;;;23.34;55.44;101922.34;5034576;28;45681;-77
2021/08/28 09:29:06;;;;;;;;;5.50;4.75;;;;;23.50;55.45;101922.00;5034687;28;45343;-76
2021/08/28 09:31:58;;;;;;;;;4.00;4.00;;;;;23.76;55.62;101924.47;5033775;28;45381;-77
2021/08/28 09:34:26;;;;;;;;;5.75;5.00;;;;;23.67;54.89;101926.91;5011021;28;48499;-76
2021/08/28 09:37:02;;;;;;;;;7.00;4.50;;;;;23.72;55.11;101931.06;5034719;28;45658;-76
2021/08/28 09:39:49;;;;;;;;;3.00;3.00;;;;;23.86;54.73;101925.44;5034777;28;45494;-76
2021/08/28 09:42:21;;;;;;;;;5.00;3.25;;;;;23.93;54.65;101923.97;5034459;28;45464;-76
2021/08/28 09:44:49;;;;;;;;;5.00;5.00;;;;;23.92;54.46;101924.97;5034048;28;46266;-76
2021/08/28 09:47:30;;;;;;;;;6.50;4.75;;;;;23.72;54.29;101918.50;5034085;28;45698;-77
2021/08/28 09:49:55;;;;;;;;;5.75;4.75;;;;;23.55;54.92;101925.19;5034740;28;45458;-76
2021/08/28 09:52:23;;;;;;;;;5.00;5.00;;;;;23.62;55.17;101917.47;5034369;28;45454;-77
2021/08/28 09:54:49;;;;;;;;;7.25;4.75;;;;;23.79;55.57;101913.47;5034950;28;45511;-76
2021/08/28 09:57:15;;;;;;;;;5.00;5.00;;;;;23.78;55.02;101917.16;5033902;28;45504;-76
2021/08/28 09:59:42;;;;;;;;;6.00;4.50;;;;;23.83;55.07;101918.47;5033846;28;45292;-77
2021/08/28 10:02:11;;;;;;;;;6.00;4.00;;;;;24.05;54.67;101922.13;5033852;28;45507;-77
2021/08/28 10:04:49;;;;;;;;;6.75;4.25;;;;;24.33;54.47;101920.72;5030068;28;46458;-78
2021/08/28 10:07:19;;;;;;;;;5.25;4.00;;;;;24.50;53.67;101922.06;5031100;28;45600;-77
2021/08/28 10:09:46;;;;;;;;;8.00;5.00;;;;;24.63;53.75;101918.19;5034672;28;45489;-77
2021/08/28 10:12:14;;;;;;;;;6.00;4.00;;;;;24.56;53.00;101919.69;5033654;28;45481;-77
2021/08/28 10:14:40;;;;;;;;;4.50;4.25;;;;;24.50;53.15;101911.31;5038624;28;45402;-77
2021/08/28 10:17:05;;;;;;;;;5.75;5.00;;;;;24.43;52.87;101919.00;5034287;28;45324;-77
2021/08/28 10:19:31;;;;;;;;;6.25;4.50;;;;;24.35;53.25;101914.28;5034427;28;45795;-78
2021/08/28 10:21:57;;;;;;;;;3.75;3.75;;;;;24.23;52.93;101915.25;5034586;28;45384;-75
2021/08/28 10:24:23;;;;;;;;;8.25;5.00;;;;;24.22;53.22;101913.53;5033125;28;46306;-75
2021/08/28 10:26:50;;;;;;;;;4.50;2.25;;;;;24.29;53.09;101913.91;5034742;28;45976;-76
2021/08/28 10:29:16;;;;;;;;;6.25;5.00;;;;;24.36;53.16;101907.06;5033396;28;45521;-76
2021/08/28 10:31:42;;;;;;;;;7.25;4.00;;;;;24.49;52.75;101909.59;5033538;28;45530;-77
2021/08/28 10:34:08;;;;;;;;;3.75;3.75;;;;;24.53;52.47;101909.19;5034608;28;45934;-76
2021/08/28 10:36:35;;;;;;;;;5.00;4.50;;;;;24.57;52.48;101904.41;5034809;28;45349;-85
2021/08/28 10:39:01;;;;;;;;;3.00;3.00;;;;;24.74;52.79;101909.22;5035105;28;45465;-76
2021/08/28 10:41:26;;;;;;;;;3.00;3.00;;;;;24.91;51.79;101905.97;5042368;28;45624;-77
2021/08/28 10:43:52;;;;;;;;;2.00;2.00;;;;;25.19;51.50;101911.69;5043949;28;45608;-75
2021/08/28 10:46:20;;;;;;;;;5.00;4.00;;;;;25.31;51.05;101896.31;5030199;28;45728;-77
2021/08/28 10:49:12;;;;;;;;;5.25;4.25;;;;;25.73;50.56;101907.84;5029123;28;45462;-76
2021/08/28 10:51:42;;;;;;;;;5.50;4.00;;;;;25.85;49.88;101884.41;5025288;28;45510;-77
2021/08/28 10:54:10;;;;;;;;;3.50;2.75;;;;;25.99;49.46;101881.31;5028000;28;46083;-77
2021/08/28 10:56:38;;;;;;;;;3.75;3.00;;;;;26.23;49.29;101891.72;5026931;28;45530;-77
2021/08/28 10:59:18;;;;;;;;;3.00;3.00;;;;;26.52;48.67;101864.81;5026988;28;45615;-77
2021/08/28 11:02:06;;;;;;;;;3.25;3.25;;;;;26.70;48.67;101856.84;5023400;28;45609;-76
2021/08/28 11:04:34;;;;;;;;;4.25;2.00;;;;;26.66;47.79;101887.78;5032690;28;46259;-77
2021/08/28 11:07:40;;;;;;;;;3.25;3.00;;;;;26.38;47.67;101897.56;5037286;28;46984;-77
2021/08/28 11:10:24;;;;;;;;;5.00;2.00;;;;;26.65;48.41;101889.63;4965284;28;45572;-77
2021/08/28 11:13:01;;;;;;;;;0.50;0.50;;;;;26.99;47.13;101886.47;4967041;28;45454;-76
2021/08/28 11:15:35;;;;;;;;;3.00;2.00;;;;;27.09;47.10;101887.31;4967994;28;46257;-76
2021/08/28 11:18:05;;;;;;;;;5.25;2.25;;;;;27.03;46.37;101882.47;4968001;28;45721;-77
2021/08/28 11:20:39;;;;;;;;;3.75;3.00;;;;;27.20;47.14;101878.19;4947994;28;45738;-77
2021/08/28 11:23:13;;;;;;;;;7.25;4.75;;;;;27.13;46.10;101877.09;4967999;28;45705;-77
2021/08/28 11:25:44;;;;;;;;;4.00;3.00;;;;;27.54;46.18;101865.00;4979105;28;46127;-77